createdAt,value
2022-10-22T00:02:20.812Z,9.10
2022-10-22T00:04:48.921Z,12.10
2022-10-22T00:07:16.923Z,11.98
2022-10-22T00:09:44.110Z,11.35
2022-10-22T00:12:11.952Z,11.20
2022-10-22T00:14:38.664Z,10.32
2022-10-22T00:17:08.043Z,13.40
2022-10-22T00:19:38.283Z,11.18
2022-10-22T00:22:07.707Z,10.30
2022-10-22T00:24:35.634Z,11.35
2022-10-22T00:27:02.548Z,9.25
2022-10-22T00:29:29.551Z,9.90
2022-10-22T00:31:56.962Z,9.60
2022-10-22T00:34:24.612Z,12.85
2022-10-22T00:36:52.580Z,10.23
2022-10-22T00:39:21.222Z,12.82
2022-10-22T00:41:49.762Z,12.60
2022-10-22T00:44:54.063Z,11.13
2022-10-22T00:47:23.732Z,13.52
2022-10-22T00:49:51.013Z,13.88
2022-10-22T00:52:17.794Z,11.40
2022-10-22T00:54:44.497Z,9.27
2022-10-22T00:57:11.356Z,10.50
2022-10-22T00:59:38.610Z,11.18
2022-10-22T01:02:05.371Z,12.20
2022-10-22T01:04:32.039Z,15.02
2022-10-22T01:06:58.922Z,9.80
2022-10-22T01:09:45.260Z,10.13
2022-10-22T01:12:30.502Z,9.95
2022-10-22T01:15:24.502Z,13.05
2022-10-22T01:18:07.227Z,11.45
2022-10-22T01:20:57.448Z,7.47
2022-10-22T01:24:03.304Z,8.45
2022-10-22T01:26:46.211Z,9.10
2022-10-22T01:29:26.123Z,13.38
2022-10-22T01:32:00.934Z,9.45
2022-10-22T01:34:29.806Z,9.65
2022-10-22T01:36:59.084Z,10.05
2022-10-22T01:39:27.080Z,9.70
2022-10-22T01:41:57.243Z,13.07
2022-10-22T01:44:32.774Z,11.98
2022-10-22T01:47:17.523Z,9.35
2022-10-22T01:50:17.124Z,9.93
2022-10-22T01:52:51.694Z,10.63
2022-10-22T01:55:39.401Z,10.13
2022-10-22T01:58:31.007Z,14.55
2022-10-22T02:01:05.572Z,10.48
2022-10-22T02:03:45.551Z,10.55
2022-10-22T02:06:20.548Z,13.38
2022-10-22T02:08:49.303Z,10.02
2022-10-22T02:11:16.758Z,9.60
2022-10-22T02:13:49.039Z,9.32
2022-10-22T02:16:25.487Z,11.43
2022-10-22T02:18:56.516Z,11.13
2022-10-22T02:21:23.740Z,12.27
2022-10-22T02:23:50.803Z,12.25
2022-10-22T02:26:40.370Z,8.45
2022-10-22T02:29:18.702Z,9.95
2022-10-22T02:31:47.771Z,9.98
2022-10-22T02:34:20.749Z,12.80
2022-10-22T02:36:50.361Z,13.43
2022-10-22T02:39:19.709Z,8.75
2022-10-22T02:41:46.692Z,9.55
2022-10-22T02:44:13.539Z,11.30
2022-10-22T02:46:42.206Z,10.25
2022-10-22T02:49:08.897Z,12.23
2022-10-22T02:51:35.593Z,11.35
2022-10-22T02:54:02.237Z,9.80
2022-10-22T02:56:29.223Z,10.10
2022-10-22T02:58:55.943Z,8.48
2022-10-22T03:01:23.064Z,15.20
2022-10-22T03:03:49.922Z,10.02
2022-10-22T03:06:16.786Z,16.75
2022-10-22T03:08:43.683Z,14.60
2022-10-22T03:11:10.696Z,10.00
2022-10-22T03:13:37.385Z,9.70
2022-10-22T03:16:04.213Z,9.18
2022-10-22T03:18:30.937Z,10.73
2022-10-22T03:21:24.710Z,15.00
2022-10-22T03:23:52.172Z,11.40
2022-10-22T03:26:19.021Z,7.82
2022-10-22T03:28:47.803Z,9.10
2022-10-22T03:31:14.772Z,14.45
2022-10-22T03:33:41.461Z,13.88
2022-10-22T03:36:09.275Z,10.55
2022-10-22T03:38:38.791Z,10.85
2022-10-22T03:41:06.039Z,8.48
2022-10-22T03:43:35.100Z,12.75
2022-10-22T03:46:01.741Z,9.63
2022-10-22T03:48:28.396Z,10.73
2022-10-22T03:50:55.147Z,8.82
2022-10-22T03:53:21.841Z,10.20
2022-10-22T03:55:48.602Z,11.18
2022-10-22T03:58:15.455Z,12.05
2022-10-22T04:00:42.162Z,9.00
2022-10-22T04:03:08.846Z,13.48
2022-10-22T04:05:35.481Z,8.43
2022-10-22T04:08:02.162Z,15.45
2022-10-22T04:10:28.853Z,9.43
2022-10-22T04:12:55.602Z,9.30
2022-10-22T04:15:22.377Z,10.30
2022-10-22T04:17:49.074Z,13.50
2022-10-22T04:20:15.813Z,9.73
2022-10-22T04:22:42.492Z,13.60
2022-10-22T04:25:09.514Z,8.05
2022-10-22T04:27:36.482Z,10.23
2022-10-22T04:30:05.267Z,11.18
2022-10-22T04:32:32.006Z,12.30
2022-10-22T04:34:58.654Z,13.25
2022-10-22T04:37:25.322Z,13.02
2022-10-22T04:39:51.980Z,14.43
2022-10-22T04:42:18.724Z,8.77
2022-10-22T04:44:45.467Z,13.48
2022-10-22T04:47:12.148Z,12.57
2022-10-22T04:49:38.904Z,13.35
2022-10-22T04:52:05.719Z,12.00
2022-10-22T04:54:33.241Z,12.93
2022-10-22T04:57:00.167Z,12.15
2022-10-22T04:59:26.958Z,14.82
2022-10-22T05:01:53.639Z,14.48
2022-10-22T05:04:20.360Z,15.07
2022-10-22T05:06:47.363Z,14.00
2022-10-22T05:09:19.907Z,15.77
2022-10-22T05:11:49.691Z,14.40
2022-10-22T05:14:18.557Z,12.68
2022-10-22T05:16:47.709Z,8.35
2022-10-22T05:19:25.965Z,17.15
2022-10-22T05:21:54.268Z,13.25
2022-10-22T05:24:21.930Z,7.97
2022-10-22T05:26:52.671Z,10.38
2022-10-22T05:29:19.826Z,9.90
2022-10-22T05:31:46.771Z,11.23
2022-10-22T05:34:14.128Z,12.30
2022-10-22T05:36:40.898Z,11.15
2022-10-22T05:39:07.928Z,9.18
2022-10-22T05:41:35.729Z,8.90
2022-10-22T05:44:03.051Z,20.92
2022-10-22T05:46:33.096Z,10.48
2022-10-22T05:49:03.052Z,14.50
2022-10-22T05:51:33.445Z,18.15
2022-10-22T05:54:02.600Z,14.45
2022-10-22T05:56:31.919Z,11.07
2022-10-22T05:58:58.884Z,13.75
2022-10-22T06:01:31.151Z,9.15
2022-10-22T06:04:00.956Z,11.15
2022-10-22T06:06:36.849Z,14.77
2022-10-22T06:09:17.384Z,25.13
2022-10-22T06:11:45.099Z,20.00
2022-10-22T06:14:12.157Z,16.70
2022-10-22T06:16:38.936Z,12.75
2022-10-22T06:19:05.628Z,19.05
2022-10-22T06:21:33.106Z,13.93
2022-10-22T06:24:01.184Z,11.50
2022-10-22T06:26:28.282Z,11.75
2022-10-22T06:28:56.182Z,15.77
2022-10-22T06:31:24.197Z,14.05
2022-10-22T06:33:50.990Z,10.57
2022-10-22T06:36:21.152Z,16.30
2022-10-22T06:38:48.016Z,11.05
2022-10-22T06:41:16.473Z,8.95
2022-10-22T06:43:47.568Z,6.85
2022-10-22T06:46:19.155Z,8.88
2022-10-22T06:48:52.150Z,15.20
2022-10-22T06:51:19.506Z,6.28
2022-10-22T06:53:46.229Z,8.80
2022-10-22T06:56:17.448Z,8.20
2022-10-22T06:58:50.251Z,9.00
2022-10-22T07:01:19.303Z,12.55
2022-10-22T07:03:46.578Z,12.02
2022-10-22T07:06:14.568Z,10.43
2022-10-22T07:08:42.396Z,11.45
2022-10-22T07:11:15.061Z,8.82
2022-10-22T07:13:42.417Z,9.38
2022-10-22T07:16:09.860Z,12.02
2022-10-22T07:18:37.991Z,12.27
2022-10-22T07:21:05.861Z,15.75
2022-10-22T07:23:33.107Z,10.38
2022-10-22T07:26:02.344Z,9.93
2022-10-22T07:28:30.171Z,14.88
2022-10-22T07:30:57.007Z,13.48
2022-10-22T07:33:23.698Z,15.10
2022-10-22T07:35:50.486Z,11.57
2022-10-22T07:38:17.241Z,11.48
2022-10-22T07:40:43.899Z,15.15
2022-10-22T07:43:10.535Z,9.02
2022-10-22T07:45:37.241Z,11.02
2022-10-22T07:48:04.738Z,12.73
2022-10-22T07:50:31.462Z,11.05
2022-10-22T07:52:58.550Z,10.07
2022-10-22T07:55:25.637Z,11.50
2022-10-22T07:57:52.609Z,13.07
2022-10-22T08:00:21.830Z,8.90
2022-10-22T08:02:51.288Z,8.63
2022-10-22T08:05:18.039Z,9.60
2022-10-22T08:07:44.975Z,10.00
2022-10-22T08:10:12.168Z,4.88
2022-10-22T08:12:39.993Z,11.13
2022-10-22T08:15:07.512Z,9.15
2022-10-22T08:17:34.442Z,15.32
2022-10-22T08:20:01.144Z,7.38
2022-10-22T08:22:27.923Z,11.77
2022-10-22T08:24:54.618Z,7.65
2022-10-22T08:27:21.854Z,12.95
2022-10-22T08:29:48.678Z,12.43
2022-10-22T08:32:15.442Z,8.77
2022-10-22T08:34:42.156Z,7.35
2022-10-22T08:37:10.467Z,8.07
2022-10-22T08:39:37.204Z,7.63
2022-10-22T08:42:23.140Z,8.38
2022-10-22T08:44:59.703Z,10.50
2022-10-22T08:47:44.558Z,10.25
2022-10-22T08:50:16.095Z,10.65
2022-10-22T08:52:47.836Z,11.37
2022-10-22T08:55:16.001Z,11.57
2022-10-22T08:57:51.412Z,11.23
2022-10-22T09:00:44.170Z,12.07
2022-10-22T09:03:22.859Z,9.50
2022-10-22T09:06:11.059Z,8.60
2022-10-22T09:08:39.339Z,13.02
2022-10-22T09:11:15.623Z,10.95
2022-10-22T09:13:45.083Z,10.60
2022-10-22T09:16:17.112Z,11.45
2022-10-22T09:18:52.106Z,11.10
2022-10-22T09:21:38.550Z,9.07
2022-10-22T09:24:32.152Z,8.10
2022-10-22T09:27:01.032Z,8.48
2022-10-22T09:29:33.087Z,14.88
2022-10-22T09:32:00.210Z,9.85
2022-10-22T09:34:28.783Z,9.63
2022-10-22T09:37:01.223Z,10.90
2022-10-22T09:39:38.276Z,11.73
2022-10-22T09:42:06.126Z,10.70
2022-10-22T09:44:37.810Z,12.55
2022-10-22T09:47:43.042Z,14.18
2022-10-22T09:50:22.729Z,15.18
2022-10-22T09:53:00.222Z,11.77
2022-10-22T09:55:27.436Z,15.43
2022-10-22T09:57:56.200Z,12.77
2022-10-22T10:00:25.024Z,11.20
2022-10-22T10:02:57.330Z,10.75
2022-10-22T10:05:31.855Z,9.60
2022-10-22T10:07:59.610Z,11.45
2022-10-22T10:10:49.059Z,8.98
2022-10-22T10:13:34.423Z,9.10
2022-10-22T10:16:27.682Z,11.25
2022-10-22T10:19:22.315Z,11.93
2022-10-22T10:22:05.184Z,12.85
2022-10-22T10:24:43.997Z,11.60
2022-10-22T10:27:35.955Z,15.52
2022-10-22T10:30:19.552Z,9.65
2022-10-22T10:33:16.666Z,8.82
2022-10-22T10:36:18.701Z,13.35
2022-10-22T10:38:56.109Z,11.47
2022-10-22T10:41:28.602Z,8.02
2022-10-22T10:44:14.512Z,10.43
2022-10-22T10:47:08.974Z,6.85
2022-10-22T10:49:36.716Z,9.63
2022-10-22T10:52:03.341Z,12.82
2022-10-22T10:54:33.189Z,10.25
2022-10-22T10:57:19.307Z,7.70
2022-10-22T10:59:57.432Z,7.03
2022-10-22T11:02:52.383Z,12.30
2022-10-22T11:05:40.547Z,9.18
2022-10-22T11:08:16.122Z,7.28
2022-10-22T11:10:50.139Z,9.82
2022-10-22T11:13:38.383Z,12.38
2022-10-22T11:16:38.719Z,12.68
2022-10-22T11:19:22.684Z,8.23
2022-10-22T11:22:09.420Z,5.13
2022-10-22T11:24:58.452Z,12.53
2022-10-22T11:27:49.090Z,9.82
2022-10-22T11:30:19.631Z,6.55
2022-10-22T11:32:58.596Z,7.28
2022-10-22T11:35:30.253Z,9.85
2022-10-22T11:37:58.085Z,9.68
2022-10-22T11:40:39.348Z,8.65
2022-10-22T11:43:07.024Z,11.35
2022-10-22T11:45:41.996Z,8.57
2022-10-22T11:48:18.868Z,9.75
2022-10-22T11:51:01.625Z,9.77
2022-10-22T11:53:39.329Z,14.90
2022-10-22T11:56:12.981Z,6.32
2022-10-22T11:58:44.713Z,11.88
2022-10-22T12:01:11.371Z,11.23
2022-10-22T12:03:46.511Z,10.30
2022-10-22T12:06:13.258Z,7.28
2022-10-22T12:08:50.616Z,17.15
2022-10-22T12:11:28.461Z,12.15
2022-10-22T12:14:13.812Z,10.90
2022-10-22T12:17:01.977Z,5.75
2022-10-22T12:19:44.561Z,13.13
2022-10-22T12:22:19.402Z,13.80
2022-10-22T12:24:49.557Z,11.52
2022-10-22T12:27:22.842Z,10.52
2022-10-22T12:29:55.418Z,10.57
2022-10-22T12:32:22.763Z,10.25
2022-10-22T12:34:52.218Z,7.50
2022-10-22T12:37:19.810Z,12.65
2022-10-22T12:39:47.214Z,9.25
2022-10-22T12:42:16.764Z,12.00
2022-10-22T12:44:44.838Z,8.82
2022-10-22T12:47:16.782Z,14.32
2022-10-22T12:49:47.875Z,11.07
2022-10-22T12:52:19.266Z,10.45
2022-10-22T12:54:49.157Z,16.13
2022-10-22T12:57:18.884Z,9.63
2022-10-22T12:59:49.947Z,11.77
2022-10-22T13:02:24.429Z,8.60
2022-10-22T13:05:16.024Z,11.38
2022-10-22T13:07:47.106Z,14.50
2022-10-22T13:10:18.457Z,9.35
2022-10-22T13:12:50.528Z,9.40
2022-10-22T13:15:35.192Z,12.98
2022-10-22T13:18:23.787Z,10.90
2022-10-22T13:20:52.948Z,10.70
2022-10-22T13:23:22.940Z,9.05
2022-10-22T13:26:18.251Z,14.45
2022-10-22T13:28:53.664Z,10.38
2022-10-22T13:31:36.233Z,12.70
2022-10-22T13:34:09.893Z,10.23
2022-10-22T13:36:38.659Z,7.85
2022-10-22T13:39:07.929Z,9.93
2022-10-22T13:44:12.264Z,10.85
2022-10-22T13:46:42.636Z,10.65
2022-10-22T13:49:17.931Z,15.85
2022-10-22T13:51:45.546Z,16.45
2022-10-22T13:54:19.579Z,10.93
2022-10-22T13:56:46.275Z,12.13
2022-10-22T13:59:13.019Z,15.07
2022-10-22T14:01:39.870Z,9.73
2022-10-22T14:04:10.662Z,18.42
2022-10-22T14:06:37.602Z,11.60
2022-10-22T14:09:08.851Z,14.57
2022-10-22T14:11:35.812Z,11.87
2022-10-22T14:14:05.022Z,10.80
2022-10-22T14:16:33.181Z,13.30
2022-10-22T14:19:00.967Z,12.27
2022-10-22T14:21:33.405Z,13.25
2022-10-22T14:24:00.130Z,7.97
2022-10-22T14:26:31.262Z,13.60
2022-10-22T14:29:13.914Z,12.05
2022-10-22T14:31:43.250Z,11.02
2022-10-22T14:34:12.185Z,19.13
2022-10-22T14:36:39.137Z,13.52
2022-10-22T14:39:05.815Z,13.27
2022-10-22T14:41:33.258Z,16.10
2022-10-22T14:44:00.064Z,12.38
2022-10-22T14:46:26.797Z,14.85
2022-10-22T14:48:53.454Z,11.70
2022-10-22T14:51:21.490Z,18.40
2022-10-22T14:53:48.967Z,10.15
2022-10-22T14:56:18.758Z,11.90
2022-10-22T14:58:45.708Z,14.95
2022-10-22T15:01:12.896Z,11.02
2022-10-22T15:03:39.646Z,19.30
2022-10-22T15:06:06.811Z,8.50
2022-10-22T15:08:33.755Z,16.30
2022-10-22T15:11:05.944Z,11.82
2022-10-22T15:13:33.335Z,9.60
2022-10-22T15:16:00.385Z,11.60
2022-10-22T15:18:27.891Z,9.05
2022-10-22T15:20:59.340Z,10.30
2022-10-22T15:23:26.478Z,14.40
2022-10-22T15:25:53.266Z,10.85
2022-10-22T15:28:20.037Z,11.52
2022-10-22T15:30:53.231Z,9.40
2022-10-22T15:33:19.998Z,11.30
2022-10-22T15:35:46.759Z,11.52
2022-10-22T15:38:13.488Z,11.02
2022-10-22T15:40:40.161Z,8.63
2022-10-22T15:43:06.801Z,18.40
2022-10-22T15:45:33.443Z,12.15
2022-10-22T15:48:00.156Z,11.73
2022-10-22T15:50:27.087Z,10.65
2022-10-22T15:52:54.604Z,11.73
2022-10-22T15:55:21.553Z,12.18
2022-10-22T15:57:54.574Z,14.80
2022-10-22T16:00:22.733Z,8.38
2022-10-22T16:02:49.392Z,13.40
2022-10-22T16:05:16.239Z,13.35
2022-10-22T16:07:43.352Z,9.18
2022-10-22T16:10:12.723Z,13.35
2022-10-22T16:12:41.077Z,11.88
2022-10-22T16:15:09.112Z,13.40
2022-10-22T16:17:35.991Z,10.88
2022-10-22T16:20:02.809Z,12.60
2022-10-22T16:22:29.552Z,11.25
2022-10-22T16:24:56.228Z,10.20
2022-10-22T16:27:22.939Z,10.65
2022-10-22T16:29:49.614Z,9.23
2022-10-22T16:32:16.735Z,7.18
2022-10-22T16:34:43.581Z,12.70
2022-10-22T16:37:10.555Z,9.20
2022-10-22T16:39:37.424Z,6.65
2022-10-22T16:42:04.269Z,7.50
2022-10-22T16:44:30.895Z,12.40
2022-10-22T16:46:57.543Z,13.32
2022-10-22T16:49:24.310Z,22.02
2022-10-22T16:51:50.948Z,11.48
2022-10-22T16:54:17.657Z,13.00
2022-10-22T16:56:44.320Z,9.65
2022-10-22T16:59:11.041Z,16.83
2022-10-22T17:01:40.893Z,12.88
2022-10-22T17:04:08.336Z,14.15
2022-10-22T17:06:35.159Z,12.65
2022-10-22T17:09:02.251Z,13.95
2022-10-22T17:11:34.508Z,12.98
2022-10-22T17:14:02.123Z,15.30
2022-10-22T17:16:29.585Z,17.42
2022-10-22T17:18:57.439Z,20.65
2022-10-22T17:21:24.255Z,19.08
2022-10-22T17:23:57.962Z,15.50
2022-10-22T17:26:26.499Z,17.88
2022-10-22T17:28:53.352Z,19.45
2022-10-22T17:31:25.952Z,23.40
2022-10-22T17:33:54.843Z,20.08
2022-10-22T17:36:23.319Z,21.02
2022-10-22T17:38:52.502Z,21.08
2022-10-22T17:41:21.953Z,21.55
2022-10-22T17:43:49.092Z,24.77
2022-10-22T17:46:19.716Z,23.20
2022-10-22T17:48:58.273Z,20.73
2022-10-22T17:51:27.474Z,22.10
2022-10-22T17:53:54.588Z,28.50
2022-10-22T17:56:26.055Z,26.20
2022-10-22T17:58:52.762Z,23.60
2022-10-22T18:01:31.184Z,20.73
2022-10-22T18:04:07.842Z,25.67
2022-10-22T18:06:35.265Z,22.27
2022-10-22T18:09:06.686Z,25.30
2022-10-22T18:11:36.479Z,31.58
2022-10-22T18:14:03.832Z,27.50
2022-10-22T18:16:30.519Z,35.65
2022-10-22T18:18:58.045Z,24.10
2022-10-22T18:21:26.789Z,21.30
2022-10-22T18:23:53.630Z,23.35
2022-10-22T18:26:24.320Z,24.80
2022-10-22T18:28:53.536Z,22.98
2022-10-22T18:31:23.300Z,24.58
2022-10-22T18:33:50.171Z,27.20
2022-10-22T18:36:19.922Z,20.77
2022-10-22T18:38:51.139Z,19.33
2022-10-22T18:41:18.669Z,22.92
2022-10-22T18:43:53.881Z,21.00
2022-10-22T18:46:20.686Z,20.00
2022-10-22T18:48:47.883Z,20.65
2022-10-22T18:51:15.359Z,24.52
2022-10-22T18:53:44.189Z,37.10
2022-10-22T18:56:13.355Z,23.45
2022-10-22T18:58:41.899Z,24.42
2022-10-22T19:01:14.584Z,20.95
2022-10-22T19:03:41.867Z,33.33
2022-10-22T19:06:08.680Z,20.05
2022-10-22T19:08:36.626Z,22.92
2022-10-22T19:11:13.250Z,22.15
2022-10-22T19:13:40.910Z,23.30
2022-10-22T19:16:09.497Z,27.73
2022-10-22T19:18:39.553Z,28.23
2022-10-22T19:21:06.331Z,22.85
2022-10-22T19:23:33.084Z,27.00
2022-10-22T19:26:13.642Z,22.92
2022-10-22T19:28:40.832Z,24.35
2022-10-22T19:31:09.643Z,27.70
2022-10-22T19:33:36.919Z,27.50
2022-10-22T19:36:05.576Z,32.67
2022-10-22T19:38:32.811Z,28.30
2022-10-22T19:40:59.696Z,30.95
2022-10-22T19:43:29.157Z,29.58
2022-10-22T19:45:56.554Z,28.02
2022-10-22T19:48:23.328Z,28.45
2022-10-22T19:50:50.965Z,24.77
2022-10-22T19:53:17.754Z,28.40
2022-10-22T19:55:45.196Z,29.25
2022-10-22T19:58:12.344Z,26.65
2022-10-22T20:00:39.268Z,26.50
2022-10-22T20:03:06.090Z,23.00
2022-10-22T20:05:33.031Z,20.95
2022-10-22T20:08:00.002Z,19.75
2022-10-22T20:10:26.769Z,19.83
2022-10-22T20:12:53.507Z,24.30
2022-10-22T20:15:21.429Z,21.10
2022-10-22T20:17:48.258Z,21.00
2022-10-22T20:20:14.980Z,16.58
2022-10-22T20:22:43.196Z,20.90
2022-10-22T20:25:11.655Z,19.45
2022-10-22T20:27:38.526Z,15.55
2022-10-22T20:30:06.579Z,16.52
2022-10-22T20:32:37.563Z,18.25
2022-10-22T20:35:05.230Z,14.77
2022-10-22T20:37:32.443Z,12.95
2022-10-22T20:39:59.420Z,12.25
2022-10-22T20:42:26.134Z,14.40
2022-10-22T20:44:52.809Z,14.18
2022-10-22T20:47:19.508Z,11.30
2022-10-22T20:49:46.400Z,14.93
2022-10-22T20:52:13.101Z,16.27
2022-10-22T20:54:42.404Z,15.82
2022-10-22T20:57:09.112Z,16.55
2022-10-22T20:59:36.124Z,14.35
2022-10-22T21:02:04.390Z,15.27
2022-10-22T21:04:31.625Z,17.00
2022-10-22T21:06:58.445Z,15.70
2022-10-22T21:09:25.383Z,13.02
2022-10-22T21:14:25.703Z,11.48
2022-10-22T21:16:52.822Z,11.18
2022-10-22T21:19:21.771Z,12.48
2022-10-22T21:21:49.176Z,7.78
2022-10-22T21:24:15.902Z,11.57
2022-10-22T21:26:43.474Z,10.25
2022-10-22T21:29:12.089Z,9.43
2022-10-22T21:31:40.210Z,10.55
2022-10-22T21:34:06.993Z,14.32
2022-10-22T21:36:33.887Z,11.40
2022-10-22T21:39:01.434Z,11.32
2022-10-22T21:41:28.174Z,12.98
2022-10-22T21:43:55.043Z,13.93
2022-10-22T21:46:26.931Z,14.82
2022-10-22T21:48:54.942Z,13.85
2022-10-22T21:51:22.878Z,14.63
2022-10-22T21:53:49.750Z,16.42
2022-10-22T21:56:19.307Z,13.95
2022-10-22T21:58:46.032Z,20.75
2022-10-22T22:01:14.360Z,21.83
2022-10-22T22:03:43.574Z,13.95
2022-10-22T22:06:10.979Z,17.92
2022-10-22T22:08:38.533Z,16.95
2022-10-22T22:11:09.039Z,12.63
2022-10-22T22:13:36.578Z,21.80
2022-10-22T22:16:06.301Z,14.88
2022-10-22T22:18:34.168Z,18.65
2022-10-22T22:21:04.604Z,18.98
2022-10-22T22:23:31.951Z,19.25
2022-10-22T22:26:00.032Z,18.25
2022-10-22T22:28:28.557Z,19.30
2022-10-22T22:30:55.334Z,17.98
2022-10-22T22:33:21.971Z,22.13
2022-10-22T22:35:48.839Z,17.02
2022-10-22T22:38:15.542Z,14.30
2022-10-22T22:40:43.147Z,15.10
2022-10-22T22:43:11.088Z,18.75
2022-10-22T22:45:39.654Z,15.95
2022-10-22T22:48:07.335Z,19.55
2022-10-22T22:50:33.956Z,18.48
2022-10-22T22:53:00.591Z,18.45
2022-10-22T22:55:27.358Z,15.40
2022-10-22T22:57:54.012Z,17.90
2022-10-22T23:00:20.717Z,18.63
2022-10-22T23:02:47.352Z,16.77
2022-10-22T23:05:14.305Z,18.77
2022-10-22T23:07:40.968Z,15.98
2022-10-22T23:10:07.901Z,17.52
2022-10-22T23:12:34.586Z,18.85
2022-10-22T23:15:02.092Z,16.25
2022-10-22T23:17:28.985Z,13.10
2022-10-22T23:19:55.727Z,17.48
2022-10-22T23:22:22.423Z,15.38
2022-10-22T23:24:49.103Z,17.05
2022-10-22T23:27:15.774Z,11.68
2022-10-22T23:29:42.422Z,18.50
2022-10-22T23:32:14.202Z,12.75
2022-10-22T23:34:41.032Z,11.10
2022-10-22T23:37:09.411Z,12.23
2022-10-22T23:39:36.067Z,8.65
2022-10-22T23:42:02.870Z,9.50
2022-10-22T23:44:29.792Z,7.68
2022-10-22T23:46:56.535Z,12.23
2022-10-22T23:49:23.441Z,14.27
2022-10-22T23:51:50.111Z,14.07
2022-10-22T23:54:18.338Z,11.00
2022-10-22T23:56:45.044Z,9.93
2022-10-22T23:59:11.711Z,9.57
